createdAt,value
2023-03-29T00:01:11.253Z,101694.25
2023-03-29T00:04:16.776Z,101691.56
2023-03-29T00:07:05.787Z,101683.69
2023-03-29T00:09:37.228Z,101678.41
2023-03-29T00:12:07.461Z,101676.66
2023-03-29T00:14:37.451Z,101676.66
2023-03-29T00:17:08.492Z,101672.28
2023-03-29T00:19:37.762Z,101664.47
2023-03-29T00:22:30.570Z,101665.38
2023-03-29T00:28:05.640Z,101653.91
2023-03-29T00:30:35.533Z,101654.81
2023-03-29T00:33:39.539Z,101650.34
2023-03-29T00:36:40.709Z,101652.88
2023-03-29T00:39:11.353Z,101654.63
2023-03-29T00:41:57.487Z,101646.69
2023-03-29T00:45:36.603Z,101641.47
2023-03-29T00:48:19.461Z,101629.31
2023-03-29T00:50:56.184Z,101633.66
2023-03-29T00:53:36.100Z,101635.44
2023-03-29T00:56:41.859Z,101627.69
2023-03-29T00:59:16.125Z,101619.94
2023-03-29T01:01:55.230Z,101617.41
2023-03-29T01:04:52.942Z,101618.22
2023-03-29T01:07:39.544Z,101615.59
2023-03-29T01:10:14.686Z,101619.16
2023-03-29T01:12:50.092Z,101615.72
2023-03-29T01:15:26.515Z,101609.66
2023-03-29T01:18:16.744Z,101599.28
2023-03-29T01:21:30.617Z,101596.69
2023-03-29T01:24:39.474Z,101591.41
2023-03-29T01:30:43.887Z,101584.53
2023-03-29T01:33:54.244Z,101586.28
2023-03-29T01:36:35.368Z,101584.59
2023-03-29T01:39:07.624Z,101579.38
2023-03-29T01:41:53.708Z,101579.38
2023-03-29T01:44:37.254Z,101578.50
2023-03-29T01:47:17.568Z,101568.97
2023-03-29T01:50:01.303Z,101566.41
2023-03-29T01:52:37.444Z,101564.69
2023-03-29T01:55:13.774Z,101569.06
2023-03-29T01:57:48.085Z,101569.94
2023-03-29T02:00:36.491Z,101571.69
2023-03-29T02:03:31.401Z,101566.47
2023-03-29T02:06:06.008Z,101560.34
2023-03-29T02:08:35.943Z,101555.19
2023-03-29T02:11:26.751Z,101547.41
2023-03-29T02:14:33.987Z,101538.69
2023-03-29T02:17:18.575Z,101529.97
2023-03-29T02:19:58.646Z,101523.91
2023-03-29T02:22:57.564Z,101516.94
2023-03-29T02:25:46.020Z,101501.38
2023-03-29T02:28:23.735Z,101504.81
2023-03-29T02:31:09.031Z,101497.00
2023-03-29T02:33:52.576Z,101501.38
2023-03-29T02:36:39.234Z,101494.38
2023-03-29T02:39:14.186Z,101494.38
2023-03-29T02:41:48.886Z,101503.09
2023-03-29T02:44:39.044Z,101497.03
2023-03-29T02:47:17.652Z,101498.81
2023-03-29T02:49:50.030Z,101492.72
2023-03-29T02:52:33.759Z,101484.88
2023-03-29T02:55:06.699Z,101481.47
2023-03-29T02:57:39.829Z,101478.00
2023-03-29T03:01:11.992Z,101479.66
2023-03-29T03:03:43.563Z,101472.75
2023-03-29T03:06:19.018Z,101478.03
2023-03-29T03:08:54.389Z,101464.16
2023-03-29T03:11:30.198Z,101468.50
2023-03-29T03:14:01.581Z,101467.66
2023-03-29T03:17:11.836Z,101459.81
2023-03-29T03:19:43.666Z,101463.38
2023-03-29T03:22:15.096Z,101459.03
2023-03-29T03:24:46.470Z,101453.81
2023-03-29T03:27:16.689Z,101447.75
2023-03-29T03:29:57.723Z,101440.81
2023-03-29T03:33:01.671Z,101438.19
2023-03-29T03:36:06.186Z,101439.94
2023-03-29T03:38:43.217Z,101435.59
2023-03-29T03:41:13.777Z,101424.34
2023-03-29T03:43:46.436Z,101431.31
2023-03-29T03:46:16.875Z,101434.84
2023-03-29T03:48:47.373Z,101438.34
2023-03-29T03:51:16.598Z,101427.00
2023-03-29T03:54:01.401Z,101425.28
2023-03-29T03:56:50.076Z,101430.47
2023-03-29T03:59:20.551Z,101427.00
2023-03-29T04:01:49.679Z,101423.59
2023-03-29T04:04:19.997Z,101418.38
2023-03-29T04:07:04.579Z,101424.47
2023-03-29T04:09:41.370Z,101420.97
2023-03-29T04:12:13.396Z,101415.78
2023-03-29T04:14:43.010Z,101410.63
2023-03-29T04:17:15.864Z,101410.63
2023-03-29T04:19:48.141Z,101410.66
2023-03-29T04:22:18.382Z,101405.47
2023-03-29T04:24:49.142Z,101404.63
2023-03-29T04:28:10.604Z,101403.66
2023-03-29T04:30:42.453Z,101399.34
2023-03-29T04:33:12.234Z,101399.38
2023-03-29T04:35:43.894Z,101398.56
2023-03-29T04:38:13.192Z,101391.66
2023-03-29T04:40:44.240Z,101391.72
2023-03-29T04:43:15.760Z,101388.25
2023-03-29T04:45:45.005Z,101382.25
2023-03-29T04:48:13.860Z,101387.47
2023-03-29T04:51:04.082Z,101387.47
2023-03-29T04:54:39.860Z,101380.41
2023-03-29T04:57:11.651Z,101383.94
2023-03-29T04:59:43.367Z,101385.75
2023-03-29T05:02:14.303Z,101381.44
2023-03-29T05:04:44.818Z,101375.34
2023-03-29T05:07:35.749Z,101379.75
2023-03-29T05:10:31.743Z,101380.63
2023-03-29T05:13:04.992Z,101383.25
2023-03-29T05:15:36.379Z,101385.91
2023-03-29T05:18:27.493Z,101376.31
2023-03-29T05:21:02.489Z,101373.78
2023-03-29T05:23:32.359Z,101372.09
2023-03-29T05:26:36.904Z,101377.31
2023-03-29T05:29:44.527Z,101376.44
2023-03-29T05:32:19.048Z,101372.97
2023-03-29T05:35:10.794Z,101373.78
2023-03-29T05:38:10.217Z,101370.25
2023-03-29T05:40:41.648Z,101374.69
2023-03-29T05:43:11.360Z,101379.97
2023-03-29T05:45:42.529Z,101379.97
2023-03-29T05:48:14.035Z,101381.75
2023-03-29T05:50:46.255Z,101370.44
2023-03-29T05:53:16.375Z,101365.31
2023-03-29T05:55:53.843Z,101371.41
2023-03-29T05:58:31.288Z,101384.50
2023-03-29T06:01:26.386Z,101389.69
2023-03-29T06:04:03.929Z,101384.41
2023-03-29T06:06:33.059Z,101387.94
2023-03-29T06:09:37.185Z,101389.63
2023-03-29T06:12:07.754Z,101389.72
2023-03-29T06:14:37.691Z,101384.56
2023-03-29T06:17:16.814Z,101384.56
2023-03-29T06:19:47.856Z,101388.97
2023-03-29T06:22:16.959Z,101391.63
2023-03-29T06:24:46.467Z,101389.84
2023-03-29T06:27:15.969Z,101383.66
2023-03-29T06:29:45.579Z,101375.81
2023-03-29T06:32:22.239Z,101384.63
2023-03-29T06:34:55.973Z,101384.75
2023-03-29T06:37:49.877Z,101384.81
2023-03-29T06:40:48.532Z,101392.66
2023-03-29T06:43:18.173Z,101396.22
2023-03-29T06:45:47.522Z,101390.25
2023-03-29T06:48:18.152Z,101388.63
2023-03-29T06:50:50.058Z,101387.00
2023-03-29T06:53:43.684Z,101388.81
2023-03-29T06:56:14.904Z,101399.25
2023-03-29T06:58:45.472Z,101400.88
2023-03-29T07:01:15.751Z,101397.38
2023-03-29T07:03:46.800Z,101390.44
2023-03-29T07:06:22.220Z,101391.44
2023-03-29T07:08:52.917Z,101390.72
2023-03-29T07:11:41.813Z,101395.25
2023-03-29T07:14:12.527Z,101397.16
2023-03-29T07:16:42.745Z,101400.78
2023-03-29T07:19:36.083Z,101394.81
2023-03-29T07:22:08.619Z,101401.09
2023-03-29T07:24:38.589Z,101393.25
2023-03-29T07:27:42.015Z,101401.97
2023-03-29T07:30:17.082Z,101402.09
2023-03-29T07:32:48.503Z,101390.13
2023-03-29T07:35:37.020Z,101391.13
2023-03-29T07:38:10.271Z,101384.22
2023-03-29T07:40:41.233Z,101398.28
2023-03-29T07:43:42.623Z,101393.16
2023-03-29T07:46:13.913Z,101412.47
2023-03-29T07:48:45.922Z,101414.38
2023-03-29T07:51:24.446Z,101419.78
2023-03-29T07:54:00.408Z,101419.16
2023-03-29T07:56:32.765Z,101414.06
2023-03-29T07:59:19.737Z,101414.19
2023-03-29T08:01:52.131Z,101416.88
2023-03-29T08:04:22.987Z,101418.78
2023-03-29T08:06:59.084Z,101412.69
2023-03-29T08:09:35.540Z,101397.94
2023-03-29T08:12:09.835Z,101402.38
2023-03-29T08:14:38.628Z,101400.72
2023-03-29T08:17:07.310Z,101400.81
2023-03-29T08:19:35.884Z,101400.06
2023-03-29T08:22:05.153Z,101397.53
2023-03-29T08:24:35.086Z,101415.94
2023-03-29T08:27:04.309Z,101418.56
2023-03-29T08:29:32.693Z,101424.72
2023-03-29T08:32:02.212Z,101423.91
2023-03-29T08:34:31.920Z,101417.88
2023-03-29T08:37:00.800Z,101414.44
2023-03-29T08:39:30.044Z,101408.31
2023-03-29T08:42:16.382Z,101396.19
2023-03-29T08:45:00.346Z,101391.19
2023-03-29T08:47:40.249Z,101385.25
2023-03-29T08:50:12.364Z,101379.22
2023-03-29T08:52:44.403Z,101389.94
2023-03-29T08:55:26.205Z,101387.47
2023-03-29T08:57:57.563Z,101377.88
2023-03-29T09:00:35.618Z,101372.63
2023-03-29T09:03:11.466Z,101374.53
2023-03-29T09:05:46.159Z,101373.81
2023-03-29T09:08:17.821Z,101385.28
2023-03-29T09:10:50.153Z,101386.22
2023-03-29T09:13:42.527Z,101379.19
2023-03-29T09:16:22.058Z,101372.09
2023-03-29T09:19:11.198Z,101363.28
2023-03-29T09:21:46.688Z,101365.09
2023-03-29T09:24:34.759Z,101356.38
2023-03-29T09:27:11.039Z,101351.19
2023-03-29T09:29:56.641Z,101343.38
2023-03-29T09:32:33.056Z,101346.00
2023-03-29T09:35:18.313Z,101341.63
2023-03-29T09:37:49.501Z,101334.66
2023-03-29T09:40:23.591Z,101323.28
2023-03-29T09:42:56.109Z,101325.94
2023-03-29T09:45:26.398Z,101318.97
2023-03-29T09:48:01.379Z,101319.84
2023-03-29T09:50:35.474Z,101311.97
2023-03-29T09:53:05.108Z,101322.50
2023-03-29T09:55:36.502Z,101320.75
2023-03-29T09:58:15.861Z,101330.41
2023-03-29T10:00:46.344Z,101336.53
2023-03-29T10:03:21.435Z,101329.50
2023-03-29T10:05:53.285Z,101327.78
2023-03-29T10:08:28.219Z,101331.22
2023-03-29T10:10:59.704Z,101324.28
2023-03-29T10:13:32.648Z,101340.03
2023-03-29T10:16:09.280Z,101333.00
2023-03-29T10:18:43.177Z,101323.38
2023-03-29T10:21:16.734Z,101325.97
2023-03-29T10:23:45.441Z,101326.78
2023-03-29T10:26:26.803Z,101333.78
2023-03-29T10:28:57.373Z,101332.03
2023-03-29T10:31:30.264Z,101334.66
2023-03-29T10:34:03.902Z,101321.47
2023-03-29T10:36:32.697Z,101317.97
2023-03-29T10:39:05.755Z,101327.66
2023-03-29T10:41:36.461Z,101323.28
2023-03-29T10:44:05.611Z,101323.28
2023-03-29T10:46:43.344Z,101323.25
2023-03-29T10:49:22.182Z,101318.78
2023-03-29T10:51:51.928Z,101316.94
2023-03-29T10:54:25.035Z,101323.09
2023-03-29T10:56:57.865Z,101321.28
2023-03-29T10:59:30.873Z,101299.34
2023-03-29T11:02:51.899Z,101322.16
2023-03-29T11:05:29.453Z,101332.72
2023-03-29T11:08:32.712Z,101319.50
2023-03-29T11:11:13.369Z,101315.94
2023-03-29T11:13:52.632Z,101313.22
2023-03-29T11:16:32.377Z,101307.84
2023-03-29T11:19:26.599Z,101312.94
2023-03-29T11:22:03.114Z,101299.53
2023-03-29T11:24:50.700Z,101296.53
2023-03-29T11:27:30.977Z,101297.31
2023-03-29T11:30:10.057Z,101289.97
2023-03-29T11:32:53.318Z,101289.59
2023-03-29T11:35:46.715Z,101288.47
2023-03-29T11:38:25.098Z,101290.06
2023-03-29T11:41:02.230Z,101290.84
2023-03-29T11:43:37.016Z,101283.75
2023-03-29T11:46:13.411Z,101276.47
2023-03-29T11:48:49.467Z,101285.09
2023-03-29T11:51:26.344Z,101294.66
2023-03-29T11:54:04.422Z,101291.88
2023-03-29T11:56:39.242Z,101295.13
2023-03-29T11:59:17.047Z,101301.16
2023-03-29T12:01:50.113Z,101293.41
2023-03-29T12:04:28.509Z,101298.78
2023-03-29T12:07:10.761Z,101288.25
2023-03-29T12:09:42.964Z,101282.13
2023-03-29T12:12:18.490Z,101278.53
2023-03-29T12:14:58.319Z,101275.88
2023-03-29T12:17:33.042Z,101268.78
2023-03-29T12:20:16.838Z,101264.47
2023-03-29T12:22:49.106Z,101263.41
2023-03-29T12:25:23.223Z,101267.78
2023-03-29T12:28:08.175Z,101264.38
2023-03-29T12:30:52.525Z,101257.09
2023-03-29T12:34:04.941Z,101248.50
2023-03-29T12:37:02.092Z,101249.00
2023-03-29T12:39:33.416Z,101259.06
2023-03-29T12:42:18.321Z,101248.47
2023-03-29T12:44:51.006Z,101246.41
2023-03-29T12:47:25.069Z,101254.13
2023-03-29T12:49:57.419Z,101253.19
2023-03-29T12:52:31.847Z,101255.88
2023-03-29T12:55:05.630Z,101243.34
2023-03-29T12:57:43.200Z,101245.16
2023-03-29T13:00:22.278Z,101245.41
2023-03-29T13:03:03.022Z,101234.22
2023-03-29T13:05:36.363Z,101235.91
2023-03-29T13:08:29.328Z,101233.06
2023-03-29T13:11:00.104Z,101233.13
2023-03-29T13:13:32.159Z,101230.91
2023-03-29T13:16:15.936Z,101232.03
2023-03-29T13:19:28.543Z,101224.19
2023-03-29T13:22:12.109Z,101224.41
2023-03-29T13:25:06.240Z,101229.13
2023-03-29T13:27:46.750Z,101224.28
2023-03-29T13:30:35.884Z,101228.22
2023-03-29T13:33:23.622Z,101215.28
2023-03-29T13:36:01.986Z,101212.91
2023-03-29T13:38:33.281Z,101218.28
2023-03-29T13:41:05.510Z,101216.53
2023-03-29T13:43:53.886Z,101214.69
2023-03-29T13:46:27.513Z,101217.19
2023-03-29T13:49:03.682Z,101204.00
2023-03-29T13:52:04.132Z,101200.41
2023-03-29T13:54:37.678Z,101201.19
2023-03-29T13:57:15.496Z,101191.53
2023-03-29T13:59:57.658Z,101189.81
2023-03-29T14:02:42.957Z,101184.38
2023-03-29T14:05:16.497Z,101178.81
2023-03-29T14:07:51.373Z,101167.94
2023-03-29T14:10:25.178Z,101173.16
2023-03-29T14:12:57.938Z,101181.94
2023-03-29T14:15:42.807Z,101178.44
2023-03-29T14:18:13.204Z,101180.91
2023-03-29T14:20:46.410Z,101169.13
2023-03-29T14:23:21.351Z,101181.09
2023-03-29T14:25:53.051Z,101175.53
2023-03-29T14:28:26.419Z,101170.88
2023-03-29T14:30:57.825Z,101168.25
2023-03-29T14:33:28.952Z,101166.09
2023-03-29T14:36:00.919Z,101167.72
2023-03-29T14:38:31.474Z,101173.28
2023-03-29T14:41:02.382Z,101168.94
2023-03-29T14:43:32.673Z,101162.09
2023-03-29T14:46:06.647Z,101167.91
2023-03-29T14:48:36.066Z,101160.47
2023-03-29T14:51:06.090Z,101162.53
2023-03-29T14:53:37.126Z,101170.81
2023-03-29T14:56:07.080Z,101169.63
2023-03-29T14:58:37.195Z,101160.31
2023-03-29T15:01:15.752Z,101167.53
2023-03-29T15:03:46.239Z,101153.69
2023-03-29T15:06:15.843Z,101154.53
2023-03-29T15:09:01.531Z,101146.66
2023-03-29T15:11:34.141Z,101137.72
2023-03-29T15:14:06.657Z,101137.56
2023-03-29T15:16:40.861Z,101138.50
2023-03-29T15:19:17.133Z,101137.72
2023-03-29T15:21:47.951Z,101128.31
2023-03-29T15:24:25.147Z,101126.88
2023-03-29T15:27:03.549Z,101124.34
2023-03-29T15:29:42.233Z,101121.41
2023-03-29T15:32:22.673Z,101119.84
2023-03-29T15:35:06.274Z,101115.03
2023-03-29T15:37:35.140Z,101114.28
2023-03-29T15:40:10.014Z,101129.72
2023-03-29T15:42:39.478Z,101112.28
2023-03-29T15:45:14.440Z,101111.63
2023-03-29T15:47:44.241Z,101105.81
2023-03-29T15:50:12.826Z,101093.81
2023-03-29T15:52:41.616Z,101103.88
2023-03-29T15:55:11.608Z,101095.34
2023-03-29T15:57:49.440Z,101101.63
2023-03-29T16:00:19.433Z,101087.72
2023-03-29T16:02:51.326Z,101088.72
2023-03-29T16:05:20.294Z,101072.94
2023-03-29T16:07:49.132Z,101086.31
2023-03-29T16:10:17.824Z,101076.69
2023-03-29T16:12:46.631Z,101072.50
2023-03-29T16:15:21.293Z,101085.97
2023-03-29T16:17:51.244Z,101076.44
2023-03-29T16:20:21.146Z,101086.25
2023-03-29T16:22:51.544Z,101092.53
2023-03-29T16:25:23.516Z,101088.31
2023-03-29T16:27:54.329Z,101093.75
2023-03-29T16:30:24.977Z,101094.81
2023-03-29T16:32:55.235Z,101089.63
2023-03-29T16:35:30.223Z,101088.84
2023-03-29T16:37:59.437Z,101081.91
2023-03-29T16:40:28.218Z,101073.22
2023-03-29T16:42:57.490Z,101063.66
2023-03-29T16:45:26.625Z,101065.50
2023-03-29T16:47:57.572Z,101060.28
2023-03-29T16:50:26.632Z,101055.91
2023-03-29T16:52:55.332Z,101054.25
2023-03-29T16:55:25.175Z,101056.09
2023-03-29T16:57:55.242Z,101050.88
2023-03-29T17:00:25.098Z,101047.38
2023-03-29T17:02:56.679Z,101047.38
2023-03-29T17:05:25.397Z,101041.22
2023-03-29T17:07:56.194Z,101036.88
2023-03-29T17:10:26.655Z,101031.66
2023-03-29T17:12:56.166Z,101016.81
2023-03-29T17:15:24.978Z,101007.25
2023-03-29T17:17:55.348Z,101004.69
2023-03-29T17:20:26.750Z,100997.72
2023-03-29T17:22:56.249Z,101003.91
2023-03-29T17:25:25.157Z,101011.88
2023-03-29T17:27:54.131Z,101023.34
2023-03-29T17:30:23.900Z,101020.75
2023-03-29T17:32:52.590Z,101019.03
2023-03-29T17:35:24.911Z,101020.84
2023-03-29T17:37:55.190Z,101019.16
2023-03-29T17:40:24.033Z,101013.91
2023-03-29T17:42:52.788Z,101004.25
2023-03-29T17:45:22.445Z,101016.56
2023-03-29T17:47:51.303Z,101025.44
2023-03-29T17:50:23.557Z,101028.16
2023-03-29T17:52:52.400Z,101036.97
2023-03-29T17:55:21.561Z,101029.09
2023-03-29T17:57:50.096Z,101023.00
2023-03-29T18:00:20.121Z,101017.78
2023-03-29T18:02:48.884Z,101023.03
2023-03-29T18:05:18.055Z,101023.94
2023-03-29T18:07:47.883Z,101020.44
2023-03-29T18:10:16.422Z,101015.22
2023-03-29T18:12:46.340Z,101002.94
2023-03-29T18:15:14.942Z,101002.09
2023-03-29T18:17:43.739Z,100988.91
2023-03-29T18:20:14.063Z,100988.97
2023-03-29T18:22:43.462Z,100994.25
2023-03-29T18:25:14.642Z,100992.50
2023-03-29T18:27:43.401Z,100982.88
2023-03-29T18:30:13.955Z,100990.75
2023-03-29T18:32:42.718Z,100988.16
2023-03-29T18:35:12.249Z,100989.97
2023-03-29T18:37:42.936Z,100986.50
2023-03-29T18:40:13.793Z,100980.41
2023-03-29T18:42:42.783Z,100989.16
2023-03-29T18:45:12.821Z,100983.88
2023-03-29T18:47:47.667Z,100997.94
2023-03-29T18:50:16.286Z,100996.19
2023-03-29T18:52:46.042Z,100994.44
2023-03-29T18:55:16.326Z,100983.97
2023-03-29T18:57:44.698Z,100984.81
2023-03-29T19:00:14.166Z,100976.94
2023-03-29T19:02:43.278Z,100971.66
2023-03-29T19:05:12.137Z,100969.00
2023-03-29T19:07:40.985Z,100965.50
2023-03-29T19:10:10.687Z,100964.59
2023-03-29T19:12:40.597Z,100967.28
2023-03-29T19:15:11.473Z,100962.88
2023-03-29T19:17:40.813Z,100959.38
2023-03-29T19:20:12.213Z,100948.84
2023-03-29T19:22:41.106Z,100946.25
2023-03-29T19:25:11.185Z,100942.72
2023-03-29T19:27:41.637Z,100942.72
2023-03-29T19:30:12.981Z,100939.22
2023-03-29T19:32:41.566Z,100934.84
2023-03-29T19:35:12.783Z,100929.56
2023-03-29T19:37:41.644Z,100929.56
2023-03-29T19:40:11.243Z,100919.94
2023-03-29T19:42:41.923Z,100915.53
2023-03-29T19:45:12.472Z,100897.13
2023-03-29T19:47:44.004Z,100898.88
2023-03-29T19:50:13.971Z,100894.50
2023-03-29T19:52:43.065Z,100896.25
2023-03-29T19:55:12.221Z,100897.16
2023-03-29T19:57:42.590Z,100898.94
2023-03-29T20:00:14.181Z,100898.06
2023-03-29T20:02:43.251Z,100906.81
2023-03-29T20:05:12.604Z,100891.03
2023-03-29T20:07:41.052Z,100893.66
2023-03-29T20:10:11.191Z,100877.88
2023-03-29T20:12:41.418Z,100877.03
2023-03-29T20:15:11.855Z,100878.75
2023-03-29T20:17:40.980Z,100866.50
2023-03-29T20:20:14.084Z,100866.50
2023-03-29T20:22:45.720Z,100855.13
2023-03-29T20:25:14.235Z,100863.03
2023-03-29T20:27:44.183Z,100842.00
2023-03-29T20:30:14.515Z,100848.16
2023-03-29T20:32:43.010Z,100841.16
2023-03-29T20:35:12.151Z,100836.81
2023-03-29T20:37:40.496Z,100832.44
2023-03-29T20:40:13.927Z,100836.84
2023-03-29T20:42:47.046Z,100830.72
2023-03-29T20:45:19.351Z,100825.50
2023-03-29T20:47:50.531Z,100824.63
2023-03-29T20:50:21.114Z,100822.03
2023-03-29T20:52:49.580Z,100815.91
2023-03-29T20:55:22.302Z,100809.78
2023-03-29T20:57:55.311Z,100797.53
2023-03-29T21:00:25.179Z,100790.53
2023-03-29T21:02:55.319Z,100787.91
2023-03-29T21:05:24.718Z,100789.69
2023-03-29T21:07:55.528Z,100782.66
2023-03-29T21:10:26.614Z,100773.91
2023-03-29T21:13:00.416Z,100766.03
2023-03-29T21:15:30.817Z,100762.50
2023-03-29T21:18:00.034Z,100756.38
2023-03-29T21:20:29.077Z,100744.13
2023-03-29T21:23:01.855Z,100742.41
2023-03-29T21:25:30.344Z,100745.94
2023-03-29T21:28:00.636Z,100735.44
2023-03-29T21:30:31.838Z,100726.75
2023-03-29T21:33:01.090Z,100712.72
2023-03-29T21:35:33.358Z,100715.41
2023-03-29T21:38:02.253Z,100714.53
2023-03-29T21:40:30.663Z,100714.53
2023-03-29T21:43:00.642Z,100710.16
2023-03-29T21:45:29.342Z,100704.00
2023-03-29T21:47:58.644Z,100693.50
2023-03-29T21:50:28.239Z,100695.25
2023-03-29T21:52:57.844Z,100691.75
2023-03-29T21:55:27.789Z,100672.50
2023-03-29T21:57:56.469Z,100672.50
2023-03-29T22:00:27.741Z,100672.53
2023-03-29T22:02:57.165Z,100657.63
2023-03-29T22:05:27.469Z,100655.03
2023-03-29T22:07:58.786Z,100647.16
2023-03-29T22:10:27.932Z,100653.31
2023-03-29T22:12:57.093Z,100650.69
2023-03-29T22:15:29.416Z,100636.69
2023-03-29T22:17:59.835Z,100649.81
2023-03-29T22:20:29.454Z,100641.94
2023-03-29T22:22:58.210Z,100647.19
2023-03-29T22:25:28.288Z,100641.91
2023-03-29T22:27:57.016Z,100631.44
2023-03-29T22:30:27.716Z,100629.72
2023-03-29T22:32:56.781Z,100632.34
2023-03-29T22:35:25.246Z,100640.22
2023-03-29T22:37:53.847Z,100637.56
2023-03-29T22:40:22.523Z,100646.31
2023-03-29T22:42:51.271Z,100633.16
2023-03-29T22:45:21.129Z,100637.50
2023-03-29T22:47:51.173Z,100635.75
2023-03-29T22:50:19.864Z,100629.59
2023-03-29T22:52:48.485Z,100635.72
2023-03-29T22:55:17.093Z,100623.44
2023-03-29T22:57:45.877Z,100617.31
2023-03-29T23:00:15.030Z,100612.97
2023-03-29T23:02:43.620Z,100607.72
2023-03-29T23:05:13.557Z,100608.56
2023-03-29T23:07:41.967Z,100611.16
2023-03-29T23:10:11.774Z,100595.38
2023-03-29T23:12:43.001Z,100594.47
2023-03-29T23:15:13.592Z,100587.44
2023-03-29T23:17:42.118Z,100588.28
2023-03-29T23:20:14.056Z,100582.13
2023-03-29T23:22:43.164Z,100563.72
2023-03-29T23:25:12.030Z,100546.19
2023-03-29T23:27:40.484Z,100533.91
2023-03-29T23:30:11.827Z,100527.75
2023-03-29T23:32:41.117Z,100542.59
2023-03-29T23:35:10.744Z,100551.34
2023-03-29T23:37:40.630Z,100538.16
2023-03-29T23:40:11.704Z,100536.44
2023-03-29T23:42:41.373Z,100532.91
2023-03-29T23:45:13.419Z,100527.66
2023-03-29T23:47:42.624Z,100511.00
2023-03-29T23:50:16.320Z,100519.75
2023-03-29T23:52:47.226Z,100516.25
2023-03-29T23:55:17.493Z,100511.88
2023-03-29T23:57:46.419Z,100509.19
